KBYI/BYI METAR and TAF weather

Enter ICAO airport designator
Station Type Date Time Source
KBYI METAR 2020/01/23 08:53 UTC NOAA

KBYI 230853Z AUTO VRB03KT 10SM OVC027 03/M01 A3021 RMK AO2 SLP237 T00281011 58004


Station Type Date Time Source
KBYI Decoded METAR 2020/01/23 08:53 UTC NOAA

BURLEY MUNICIPAL AIRPORT, ID, United States (KBYI) 42-33N 113-46W 1264M
Jan 23, 2020 - 03:53 AM EST / 2020.01.23 0853 UTC
Wind: Variable at 3 MPH (3 KT):0
Visibility: 10 mile(s):0
Sky conditions: overcast
Temperature: 37.0 F (2.8 C)
Dew Point: 30.0 F (-1.1 C)
Relative Humidity: 75%
Pressure (altimeter): 30.21 in. Hg (1023 hPa)
Pressure tendency: 0.01 inches (0.4 hPa) lower than three hours ago
ob: KBYI 230853Z AUTO VRB03KT 10SM OVC027 03/M01 A3021 RMK AO2 SLP237 T00281011 58004
cycle: 9

Station Type Date Time Source
KBYI TAF 2020/01/23 06:30 UTC NOAA

TAF KBYI 230528Z 2306/2406 20006KT P6SM VCSH SCT015 BKN040 OVC060
FM230900 VRB04KT P6SM VCFG SCT015 OVC025
TEMPO 2309/2313 BKN015 OVC025
FM231300 19006KT P6SM VCFG OVC015
FM231800 20006KT P6SM BKN025 BKN060 BKN140
FM232200 18006KT P6SM SCT040 SCT100 SCT200

Example: see airport list